createdAt,value
2022-11-09T00:00:42.907Z,13.6
2022-11-09T00:01:40.603Z,13.6
2022-11-09T00:02:47.802Z,13.6
2022-11-09T00:03:41.026Z,13.6
2022-11-09T00:04:46.033Z,13.6
2022-11-09T00:05:41.151Z,13.6
2022-11-09T00:06:44.161Z,13.6
2022-11-09T00:07:41.001Z,13.6
2022-11-09T00:08:41.656Z,13.6
2022-11-09T00:09:41.182Z,13.6
2022-11-09T00:11:02.404Z,13.6
2022-11-09T00:13:31.502Z,13.6
2022-11-09T00:13:52.070Z,13.6
2022-11-09T00:13:52.152Z,13.5
2022-11-09T00:14:41.436Z,13.5
2022-11-09T00:15:51.455Z,13.5
2022-11-09T00:16:41.549Z,13.5
2022-11-09T00:17:41.609Z,13.6
2022-11-09T00:18:41.667Z,13.6
2022-11-09T00:19:41.770Z,13.6
2022-11-09T00:20:46.050Z,13.6
2022-11-09T00:21:41.851Z,13.5
2022-11-09T00:22:41.931Z,13.5
2022-11-09T00:23:42.082Z,13.4
2022-11-09T00:24:42.014Z,13.5
2022-11-09T00:25:42.064Z,13.5
2022-11-09T00:26:42.184Z,13.5
2022-11-09T00:27:42.306Z,13.5
2022-11-09T00:28:42.324Z,13.5
2022-11-09T00:29:42.347Z,13.5
2022-11-09T00:30:44.674Z,13.6
2022-11-09T00:31:59.931Z,13.5
2022-11-09T00:32:42.518Z,13.4
2022-11-09T00:33:42.628Z,13.5
2022-11-09T00:34:42.729Z,13.5
2022-11-09T00:35:42.762Z,13.5
2022-11-09T00:36:42.806Z,13.4
2022-11-09T00:37:47.973Z,13.4
2022-11-09T00:38:43.685Z,13.4
2022-11-09T00:39:43.052Z,13.4
2022-11-09T00:40:43.252Z,13.4
2022-11-09T00:41:43.150Z,13.4
2022-11-09T00:42:43.529Z,13.4
2022-11-09T00:43:43.355Z,13.4
2022-11-09T00:44:43.656Z,13.4
2022-11-09T00:45:43.533Z,13.4
2022-11-09T00:46:43.559Z,13.4
2022-11-09T00:47:43.602Z,13.4
2022-11-09T00:48:43.750Z,13.4
2022-11-09T00:49:43.729Z,13.4
2022-11-09T00:50:43.834Z,13.4
2022-11-09T00:51:44.379Z,13.4
2022-11-09T00:52:43.985Z,13.4
2022-11-09T00:53:44.023Z,13.4
2022-11-09T00:54:49.085Z,13.5
2022-11-09T00:55:50.545Z,13.5
2022-11-09T00:56:44.245Z,13.4
2022-11-09T00:57:44.279Z,13.4
2022-11-09T00:58:49.401Z,13.5
2022-11-09T00:59:44.492Z,13.5
2022-11-09T01:00:44.534Z,13.5
2022-11-09T01:01:44.584Z,13.5
2022-11-09T01:02:44.651Z,13.5
2022-11-09T01:03:44.697Z,13.6
2022-11-09T01:04:49.751Z,13.6
2022-11-09T01:05:44.955Z,13.5
2022-11-09T01:06:44.889Z,13.5
2022-11-09T01:07:45.057Z,13.5
2022-11-09T01:08:45.055Z,13.5
2022-11-09T01:09:45.050Z,13.5
2022-11-09T01:10:45.112Z,13.5
2022-11-09T01:11:45.243Z,13.5
2022-11-09T01:12:45.235Z,13.4
2022-11-09T01:13:50.303Z,13.4
2022-11-09T01:14:46.031Z,13.4
2022-11-09T01:15:45.421Z,13.4
2022-11-09T01:16:45.459Z,13.4
2022-11-09T01:17:45.477Z,13.4
2022-11-09T01:18:45.637Z,13.4
2022-11-09T01:19:45.660Z,13.3
2022-11-09T01:20:46.381Z,13.3
2022-11-09T01:21:45.737Z,13.3
2022-11-09T01:22:58.959Z,13.3
2022-11-09T01:23:45.801Z,13.3
2022-11-09T01:24:45.894Z,13.3
2022-11-09T01:25:45.950Z,13.3
2022-11-09T01:26:46.003Z,13.3
2022-11-09T01:27:46.158Z,13.2
2022-11-09T01:28:46.073Z,13.1
2022-11-09T01:29:46.157Z,13.1
2022-11-09T01:30:46.239Z,13
2022-11-09T01:31:46.268Z,13.1
2022-11-09T01:32:46.314Z,13.2
2022-11-09T01:33:46.360Z,13.2
2022-11-09T01:34:46.449Z,13.1
2022-11-09T01:35:46.507Z,13.2
2022-11-09T01:36:46.510Z,13.2
2022-11-09T01:37:46.611Z,13.1
2022-11-09T01:38:46.639Z,13.1
2022-11-09T01:39:46.681Z,13.2
2022-11-09T01:40:46.732Z,13.2
2022-11-09T01:41:46.771Z,13.2
2022-11-09T01:42:46.829Z,13.2
2022-11-09T01:43:46.910Z,13.2
2022-11-09T01:44:46.933Z,13.2
2022-11-09T01:45:46.975Z,13.2
2022-11-09T01:46:47.073Z,13.2
2022-11-09T01:47:47.024Z,13.2
2022-11-09T01:48:47.070Z,13.1
2022-11-09T01:49:47.155Z,13.2
2022-11-09T01:50:47.187Z,13.2
2022-11-09T01:51:47.349Z,13.3
2022-11-09T01:52:47.363Z,13.2
2022-11-09T01:53:47.380Z,13.2
2022-11-09T01:54:47.494Z,13.2
2022-11-09T01:55:47.558Z,13.2
2022-11-09T01:56:47.645Z,13.2
2022-11-09T01:57:47.790Z,13.2
2022-11-09T01:58:47.760Z,13.2
2022-11-09T01:59:47.908Z,13.2
2022-11-09T02:00:47.932Z,13.2
2022-11-09T02:01:48.027Z,13.2
2022-11-09T02:02:48.028Z,13.2
2022-11-09T02:03:48.156Z,13.1
2022-11-09T02:04:48.214Z,13.1
2022-11-09T02:05:48.246Z,13.1
2022-11-09T02:06:48.334Z,13.1
2022-11-09T02:07:48.443Z,13.1
2022-11-09T02:08:48.486Z,13.1
2022-11-09T02:09:48.530Z,13.1
2022-11-09T02:10:48.592Z,13.1
2022-11-09T02:11:48.654Z,13.1
2022-11-09T02:12:48.756Z,13.1
2022-11-09T02:13:49.326Z,13.1
2022-11-09T02:14:48.925Z,13.1
2022-11-09T02:15:49.008Z,13.1
2022-11-09T02:16:49.069Z,13.1
2022-11-09T02:17:49.156Z,13.1
2022-11-09T02:18:54.203Z,13.1
2022-11-09T02:19:49.247Z,13.1
2022-11-09T02:20:49.330Z,13.1
2022-11-09T02:21:49.383Z,13.1
2022-11-09T02:22:49.439Z,13.1
2022-11-09T02:23:49.441Z,13.1
2022-11-09T02:24:52.827Z,13.1
2022-11-09T02:25:49.541Z,13.1
2022-11-09T02:26:49.601Z,13.1
2022-11-09T02:27:49.669Z,13.1
2022-11-09T02:28:49.756Z,13.1
2022-11-09T02:29:49.816Z,13.1
2022-11-09T02:30:49.930Z,13
2022-11-09T02:31:50.029Z,13
2022-11-09T02:32:50.021Z,13
2022-11-09T02:33:50.037Z,13
2022-11-09T02:34:50.104Z,13
2022-11-09T02:35:50.192Z,13.1
2022-11-09T02:36:50.234Z,13.1
2022-11-09T02:37:50.299Z,13.1
2022-11-09T02:38:50.346Z,13.1
2022-11-09T02:39:50.443Z,13.1
2022-11-09T02:40:50.493Z,13
2022-11-09T02:41:50.524Z,13
2022-11-09T02:42:50.614Z,13.1
2022-11-09T02:43:50.653Z,13.1
2022-11-09T02:44:50.742Z,13
2022-11-09T02:45:50.774Z,13
2022-11-09T02:46:51.077Z,13
2022-11-09T02:47:50.957Z,13
2022-11-09T02:48:50.985Z,12.9
2022-11-09T02:49:51.081Z,12.9
2022-11-09T02:50:51.367Z,12.9
2022-11-09T02:51:51.208Z,12.9
2022-11-09T02:52:51.243Z,12.9
2022-11-09T02:53:51.287Z,13
2022-11-09T02:54:51.378Z,12.9
2022-11-09T02:55:51.457Z,12.9
2022-11-09T02:56:51.543Z,12.9
2022-11-09T02:57:51.595Z,12.9
2022-11-09T02:58:51.673Z,12.9
2022-11-09T02:59:51.793Z,12.9
2022-11-09T03:00:51.850Z,12.8
2022-11-09T03:01:51.888Z,12.9
2022-11-09T03:02:51.939Z,12.9
2022-11-09T03:03:52.050Z,12.9
2022-11-09T03:04:52.391Z,12.9
2022-11-09T03:05:52.195Z,12.8
2022-11-09T03:06:52.384Z,12.8
2022-11-09T03:07:52.419Z,12.8
2022-11-09T03:08:52.414Z,12.8
2022-11-09T03:09:52.541Z,12.9
2022-11-09T03:10:52.551Z,12.9
2022-11-09T03:11:54.675Z,12.9
2022-11-09T03:12:52.819Z,12.9
2022-11-09T03:13:54.197Z,12.9
2022-11-09T03:14:53.123Z,12.8
2022-11-09T03:17:23.846Z,12.9
2022-11-09T03:17:32.624Z,12.9
2022-11-09T03:17:53.643Z,13
2022-11-09T03:19:45.820Z,13
2022-11-09T03:21:02.901Z,13
2022-11-09T03:21:04.830Z,12.9
2022-11-09T03:21:58.385Z,12.9
2022-11-09T03:22:58.448Z,13
2022-11-09T03:23:53.639Z,12.9
2022-11-09T03:24:53.679Z,12.9
2022-11-09T03:25:53.842Z,13
2022-11-09T03:26:53.986Z,13
2022-11-09T03:27:54.131Z,13
2022-11-09T03:28:53.859Z,13
2022-11-09T03:29:58.920Z,13.1
2022-11-09T03:30:54.291Z,13.1
2022-11-09T03:31:54.043Z,13.1
2022-11-09T03:32:54.622Z,13
2022-11-09T03:33:54.234Z,13.1
2022-11-09T03:34:54.265Z,13
2022-11-09T03:35:58.912Z,13
2022-11-09T03:36:54.414Z,13.1
2022-11-09T03:37:54.398Z,13
2022-11-09T03:38:54.401Z,13
2022-11-09T03:39:54.506Z,13
2022-11-09T03:40:54.528Z,13.1
2022-11-09T03:41:54.638Z,13.1
2022-11-09T03:42:54.710Z,13.1
2022-11-09T03:43:56.524Z,13.1
2022-11-09T03:44:54.773Z,13.1
2022-11-09T03:45:54.810Z,13.1
2022-11-09T03:46:55.234Z,13
2022-11-09T03:47:56.000Z,13
2022-11-09T03:48:55.104Z,13
2022-11-09T03:49:55.172Z,13
2022-11-09T03:50:57.020Z,13.1
2022-11-09T03:51:55.261Z,13.1
2022-11-09T03:52:55.317Z,13
2022-11-09T03:54:01.643Z,12.9
2022-11-09T03:54:55.413Z,12.9
2022-11-09T03:55:56.102Z,12.9
2022-11-09T03:57:05.861Z,13
2022-11-09T03:57:56.844Z,13
2022-11-09T03:59:30.678Z,13
2022-11-09T04:02:39.467Z,12.9
2022-11-09T04:04:18.839Z,13
2022-11-09T04:04:30.945Z,13
2022-11-09T04:05:51.820Z,12.9
2022-11-09T04:08:10.336Z,12.8
2022-11-09T04:08:12.026Z,12.7
2022-11-09T04:08:56.405Z,12.8
2022-11-09T04:09:56.430Z,12.8
2022-11-09T04:10:56.452Z,12.8
2022-11-09T04:12:24.194Z,12.9
2022-11-09T04:12:56.975Z,12.9
2022-11-09T04:14:06.682Z,12.9
2022-11-09T04:15:01.754Z,12.8
2022-11-09T04:16:00.082Z,12.8
2022-11-09T04:17:06.115Z,12.7
2022-11-09T04:18:12.922Z,12.7
2022-11-09T04:18:57.030Z,12.8
2022-11-09T04:19:57.099Z,12.8
2022-11-09T04:20:58.443Z,12.8
2022-11-09T04:21:57.237Z,12.8
2022-11-09T04:22:57.320Z,12.8
2022-11-09T04:24:00.647Z,12.8
2022-11-09T04:25:02.449Z,12.8
2022-11-09T04:25:57.659Z,12.8
2022-11-09T04:26:57.635Z,12.8
2022-11-09T04:27:57.672Z,12.8
2022-11-09T04:28:57.999Z,12.9
2022-11-09T04:29:57.861Z,12.9
2022-11-09T04:31:30.969Z,12.9
2022-11-09T04:31:57.930Z,12.9
2022-11-09T04:32:57.975Z,12.9
2022-11-09T04:33:58.072Z,12.9
2022-11-09T04:34:58.133Z,12.9
2022-11-09T04:35:58.241Z,12.9
2022-11-09T04:36:58.289Z,12.9
2022-11-09T04:37:58.332Z,13
2022-11-09T04:38:58.424Z,12.9
2022-11-09T04:39:58.511Z,12.9
2022-11-09T04:40:58.516Z,12.9
2022-11-09T04:41:58.583Z,12.9
2022-11-09T04:42:58.623Z,12.9
2022-11-09T04:43:58.690Z,12.9
2022-11-09T04:44:58.704Z,12.9
2022-11-09T04:45:58.743Z,13
2022-11-09T04:46:58.817Z,13
2022-11-09T04:47:58.853Z,12.9
2022-11-09T04:48:58.961Z,12.9
2022-11-09T04:49:59.232Z,12.9
2022-11-09T04:50:59.002Z,12.9
2022-11-09T04:51:59.088Z,12.9
2022-11-09T04:53:00.975Z,12.9
2022-11-09T04:53:59.235Z,12.9
2022-11-09T04:54:59.299Z,12.9
2022-11-09T04:55:59.341Z,12.9
2022-11-09T04:56:59.368Z,12.9
2022-11-09T04:57:59.433Z,12.9
2022-11-09T04:58:59.553Z,12.9
2022-11-09T04:59:59.551Z,12.8
2022-11-09T05:00:59.674Z,12.8
2022-11-09T05:01:59.654Z,12.8
2022-11-09T05:02:59.726Z,12.8
2022-11-09T05:03:59.836Z,12.8
2022-11-09T05:04:59.803Z,12.8
2022-11-09T05:05:59.884Z,12.8
2022-11-09T05:06:59.977Z,12.8
2022-11-09T05:07:59.970Z,12.8
2022-11-09T05:09:09.222Z,12.8
2022-11-09T05:10:00.122Z,12.7
2022-11-09T05:11:00.215Z,12.7
2022-11-09T05:12:00.171Z,12.7
2022-11-09T05:13:00.136Z,12.7
2022-11-09T05:14:05.363Z,12.7
2022-11-09T05:15:00.206Z,12.7
2022-11-09T05:16:00.217Z,12.7
2022-11-09T05:17:00.293Z,12.8
2022-11-09T05:18:00.324Z,12.8
2022-11-09T05:19:00.389Z,12.8
2022-11-09T05:20:00.462Z,12.8
2022-11-09T05:21:00.473Z,12.8
2022-11-09T05:22:00.631Z,12.7
2022-11-09T05:23:00.653Z,12.7
2022-11-09T05:24:00.956Z,12.7
2022-11-09T05:25:00.812Z,12.8
2022-11-09T05:26:00.822Z,12.7
2022-11-09T05:27:00.889Z,12.7
2022-11-09T05:28:01.008Z,12.7
2022-11-09T05:29:01.101Z,12.8
2022-11-09T05:30:01.113Z,12.8
2022-11-09T05:31:01.202Z,12.8
2022-11-09T05:32:01.288Z,12.8
2022-11-09T05:33:01.355Z,12.7
2022-11-09T05:34:01.494Z,12.8
2022-11-09T05:35:01.559Z,12.8
2022-11-09T05:36:01.573Z,12.7
2022-11-09T05:37:06.673Z,12.7
2022-11-09T05:38:06.814Z,12.7
2022-11-09T05:39:04.980Z,12.7
2022-11-09T05:40:01.979Z,12.8
2022-11-09T05:41:02.018Z,12.8
2022-11-09T05:42:02.030Z,12.8
2022-11-09T05:43:02.194Z,12.8
2022-11-09T05:44:02.261Z,12.8
2022-11-09T05:45:21.241Z,12.8
2022-11-09T05:46:06.336Z,12.8
2022-11-09T05:47:02.401Z,12.8
2022-11-09T05:48:02.462Z,12.8
2022-11-09T05:49:02.581Z,12.8
2022-11-09T05:50:02.668Z,12.9
2022-11-09T05:51:02.711Z,12.9
2022-11-09T05:52:09.959Z,12.8
2022-11-09T05:53:02.860Z,12.8
2022-11-09T05:54:02.986Z,12.8
2022-11-09T05:55:02.973Z,12.8
2022-11-09T05:56:03.035Z,12.8
2022-11-09T05:57:03.317Z,12.8
2022-11-09T05:58:03.106Z,12.7
2022-11-09T05:59:03.164Z,12.7
2022-11-09T06:00:06.217Z,12.7
2022-11-09T06:01:08.321Z,12.7
2022-11-09T06:02:03.468Z,12.7
2022-11-09T06:03:03.401Z,12.6
2022-11-09T06:04:03.491Z,12.6
2022-11-09T06:05:03.533Z,12.6
2022-11-09T06:06:07.936Z,12.5
2022-11-09T06:07:03.684Z,12.5
2022-11-09T06:08:03.686Z,12.6
2022-11-09T06:09:03.749Z,12.5
2022-11-09T06:10:04.084Z,12.4
2022-11-09T06:11:03.871Z,12.4
2022-11-09T06:12:03.977Z,12.4
2022-11-09T06:13:04.027Z,12.4
2022-11-09T06:14:04.593Z,12.4
2022-11-09T06:15:04.182Z,12.5
2022-11-09T06:16:04.268Z,12.6
2022-11-09T06:17:04.308Z,12.5
2022-11-09T06:18:04.613Z,12.5
2022-11-09T06:19:09.431Z,12.6
2022-11-09T06:20:05.295Z,12.6
2022-11-09T06:21:04.563Z,12.6
2022-11-09T06:22:04.654Z,12.6
2022-11-09T06:23:04.705Z,12.6
2022-11-09T06:24:04.895Z,12.6
2022-11-09T06:25:05.091Z,12.6
2022-11-09T06:26:13.087Z,12.6
2022-11-09T06:27:04.969Z,12.6
2022-11-09T06:28:05.031Z,12.6
2022-11-09T06:29:06.170Z,12.6
2022-11-09T06:30:10.183Z,12.6
2022-11-09T06:31:06.366Z,12.6
2022-11-09T06:32:15.341Z,12.6
2022-11-09T06:33:06.024Z,12.6
2022-11-09T06:34:05.771Z,12.6
2022-11-09T06:35:08.399Z,12.5
2022-11-09T06:36:06.118Z,12.5
2022-11-09T06:38:10.801Z,12.5
2022-11-09T06:38:20.714Z,12.5
2022-11-09T06:39:07.035Z,12.5
2022-11-09T06:40:15.932Z,12.5
2022-11-09T06:41:06.051Z,12.5
2022-11-09T06:42:11.324Z,12.5
2022-11-09T06:43:22.568Z,12.5
2022-11-09T06:44:11.459Z,12.5
2022-11-09T06:45:11.685Z,12.5
2022-11-09T06:46:26.671Z,12.5
2022-11-09T06:48:12.597Z,12.5
2022-11-09T06:48:27.040Z,12.5
2022-11-09T06:49:32.212Z,12.6
2022-11-09T06:50:26.963Z,12.6
2022-11-09T06:51:27.082Z,12.6
2022-11-09T06:52:27.937Z,12.5
2022-11-09T06:53:27.224Z,12.6
2022-11-09T06:54:27.292Z,12.5
2022-11-09T06:55:28.329Z,12.5
2022-11-09T06:56:27.415Z,12.4
2022-11-09T06:57:27.480Z,12.4
2022-11-09T06:58:27.561Z,12.4
2022-11-09T06:59:27.657Z,12.4
2022-11-09T07:00:27.751Z,12.4
2022-11-09T07:01:27.896Z,12.4
2022-11-09T07:02:27.878Z,12.4
2022-11-09T07:03:27.988Z,12.5
2022-11-09T07:04:28.106Z,12.5
2022-11-09T07:05:28.129Z,12.5
2022-11-09T07:06:28.253Z,12.5
2022-11-09T07:07:28.585Z,12.5
2022-11-09T07:08:28.249Z,12.5
2022-11-09T07:09:28.287Z,12.6
2022-11-09T07:10:28.397Z,12.6
2022-11-09T07:11:28.408Z,12.6
2022-11-09T07:12:28.468Z,12.6
2022-11-09T07:13:28.587Z,12.6
2022-11-09T07:14:28.632Z,12.6
2022-11-09T07:15:28.694Z,12.6
2022-11-09T07:16:28.742Z,12.6
2022-11-09T07:18:59.713Z,12.6
2022-11-09T07:21:29.666Z,12.5
2022-11-09T07:22:30.651Z,12.5
2022-11-09T07:23:30.692Z,12.5
2022-11-09T07:24:30.774Z,12.6
2022-11-09T07:25:30.842Z,12.6
2022-11-09T07:26:30.906Z,12.6
2022-11-09T07:27:31.013Z,12.6
2022-11-09T07:28:31.035Z,12.6
2022-11-09T07:29:31.089Z,12.6
2022-11-09T07:30:31.191Z,12.6
2022-11-09T07:31:31.223Z,12.6
2022-11-09T07:32:46.893Z,12.7
2022-11-09T07:33:31.465Z,12.7
2022-11-09T07:34:31.487Z,12.7
2022-11-09T07:35:31.492Z,12.7
2022-11-09T07:36:31.647Z,12.7
2022-11-09T07:37:31.627Z,12.7
2022-11-09T07:38:31.706Z,12.7
2022-11-09T07:39:31.748Z,12.8
2022-11-09T08:18:35.085Z,13.2
2022-11-09T08:19:35.110Z,13.2
2022-11-09T08:20:35.187Z,13.2
2022-11-09T08:21:35.230Z,13.3
2022-11-09T08:22:35.352Z,13.3
2022-11-09T08:23:35.377Z,13.3
2022-11-09T08:24:35.414Z,13.5
2022-11-09T08:25:35.475Z,13.5
2022-11-09T08:26:35.524Z,13.6
2022-11-09T08:27:35.575Z,13.6
2022-11-09T08:28:40.005Z,13.6
2022-11-09T08:29:35.790Z,13.6
2022-11-09T08:30:35.723Z,13.7
2022-11-09T08:31:35.818Z,13.6
2022-11-09T08:32:36.388Z,13.6
2022-11-09T08:33:40.523Z,13.5
2022-11-09T08:39:36.296Z,13.7
2022-11-09T08:40:36.366Z,13.7
2022-11-09T08:41:43.810Z,13.8
2022-11-09T08:42:38.893Z,13.8
2022-11-09T08:43:42.220Z,13.8
2022-11-09T08:44:55.615Z,13.8
2022-11-09T08:45:49.965Z,13.8
2022-11-09T08:46:40.953Z,13.8
2022-11-09T08:47:36.714Z,13.8
2022-11-09T08:48:36.936Z,13.8
2022-11-09T08:49:36.864Z,13.8
2022-11-09T08:50:36.903Z,13.8
2022-11-09T08:51:36.954Z,13.9
2022-11-09T08:53:37.070Z,14.2
2022-11-09T08:54:37.140Z,14.3
2022-11-09T08:55:37.183Z,14.4
2022-11-09T08:56:37.262Z,14.4
2022-11-09T08:57:37.282Z,14.5
2022-11-09T08:58:37.370Z,14.5
2022-11-09T08:59:37.416Z,14.6
2022-11-09T09:00:37.448Z,14.6
2022-11-09T09:01:37.701Z,14.7
2022-11-09T09:02:37.568Z,14.6
2022-11-09T09:03:37.682Z,14.5
2022-11-09T09:04:37.760Z,14.4
2022-11-09T09:05:37.843Z,14.5
2022-11-09T09:06:37.909Z,14.4
2022-11-09T09:07:37.940Z,14.3
2022-11-09T09:08:37.958Z,14.3
2022-11-09T09:09:38.007Z,14.3
2022-11-09T09:10:38.098Z,14.5
2022-11-09T09:11:38.114Z,14.7
2022-11-09T09:12:38.168Z,14.7
2022-11-09T09:13:43.009Z,14.9
2022-11-09T09:14:38.270Z,14.9
2022-11-09T09:15:38.341Z,15
2022-11-09T09:16:38.377Z,15
2022-11-09T09:17:38.428Z,14.9
2022-11-09T09:18:38.480Z,14.8
2022-11-09T09:19:38.570Z,14.7
2022-11-09T09:20:38.688Z,14.8
2022-11-09T09:21:38.719Z,14.7
2022-11-09T09:22:38.753Z,14.6
2022-11-09T09:23:38.803Z,14.6
2022-11-09T09:24:38.874Z,14.7
2022-11-09T09:25:38.981Z,14.7
2022-11-09T09:26:38.960Z,14.6
2022-11-09T09:27:39.061Z,14.6
2022-11-09T09:28:39.118Z,14.6
2022-11-09T09:29:39.151Z,14.5
2022-11-09T09:30:39.201Z,14.5
2022-11-09T09:31:39.232Z,14.6
2022-11-09T09:32:39.264Z,14.6
2022-11-09T09:33:39.328Z,14.7
2022-11-09T09:34:39.430Z,14.7
2022-11-09T09:35:39.455Z,14.8
2022-11-09T09:36:43.368Z,15
2022-11-09T09:37:39.631Z,15.3
2022-11-09T09:38:39.690Z,15.7
2022-11-09T09:39:39.905Z,15.9
2022-11-09T09:40:39.775Z,15.9
2022-11-09T09:41:39.817Z,16
2022-11-09T09:42:39.881Z,15.9
2022-11-09T09:43:43.134Z,15.7
2022-11-09T09:44:39.957Z,15.8
2022-11-09T09:45:40.043Z,15.6
2022-11-09T09:46:40.091Z,15.5
2022-11-09T09:47:40.158Z,15.5
2022-11-09T09:48:40.240Z,15.5
2022-11-09T09:49:40.351Z,15.5
2022-11-09T09:50:40.368Z,15.4
2022-11-09T09:51:40.367Z,15.3
2022-11-09T09:52:40.539Z,15.2
2022-11-09T09:53:40.514Z,15.1
2022-11-09T09:54:40.532Z,15.2
2022-11-09T09:55:40.661Z,15.3
2022-11-09T09:56:40.690Z,15.2
2022-11-09T09:57:42.198Z,15
2022-11-09T09:58:40.740Z,14.9
2022-11-09T09:59:40.813Z,14.8
2022-11-09T10:00:40.899Z,14.8
2022-11-09T10:01:40.940Z,14.8
2022-11-09T10:02:40.975Z,14.9
2022-11-09T10:03:41.084Z,15
2022-11-09T10:04:41.220Z,15
2022-11-09T10:05:41.177Z,15.1
2022-11-09T10:06:41.393Z,15.2
2022-11-09T10:07:41.303Z,15.2
2022-11-09T10:08:41.500Z,15.2
2022-11-09T10:09:41.570Z,15.2
2022-11-09T10:10:41.479Z,15.4
2022-11-09T10:11:41.514Z,15.5
2022-11-09T10:12:41.596Z,15.4
2022-11-09T10:13:41.664Z,15.4
2022-11-09T10:14:41.702Z,15.3
2022-11-09T10:15:41.774Z,15.3
2022-11-09T10:16:41.814Z,15.3
2022-11-09T10:17:41.896Z,15.4
2022-11-09T10:18:41.948Z,15.5
2022-11-09T10:19:41.999Z,15.6
2022-11-09T10:20:42.064Z,15.5
2022-11-09T10:21:48.115Z,15.5
2022-11-09T10:22:42.161Z,15.6
2022-11-09T10:23:42.230Z,15.8
2022-11-09T10:24:53.298Z,16.1
2022-11-09T10:26:10.088Z,16.3
2022-11-09T10:26:42.434Z,16.2
2022-11-09T10:27:42.467Z,16.2
2022-11-09T10:29:09.541Z,16.2
2022-11-09T10:29:42.588Z,16.3
2022-11-09T10:30:42.648Z,16.1
2022-11-09T10:31:42.698Z,16.3
2022-11-09T10:32:42.751Z,16.1
2022-11-09T10:33:42.882Z,16.1
2022-11-09T10:34:42.914Z,16.2
2022-11-09T10:35:42.978Z,16.1
2022-11-09T10:36:43.003Z,16.1
2022-11-09T10:37:43.075Z,15.9
2022-11-09T10:38:43.145Z,16
2022-11-09T10:39:43.197Z,16.1
2022-11-09T10:40:43.275Z,16.2
2022-11-09T10:41:43.343Z,16.1
2022-11-09T10:42:43.435Z,15.8
2022-11-09T10:43:43.458Z,15.6
2022-11-09T10:44:43.544Z,15.5
2022-11-09T10:45:43.594Z,15.8
2022-11-09T10:46:43.630Z,15.8
2022-11-09T10:49:56.836Z,15.4
2022-11-09T10:50:56.880Z,15.4
2022-11-09T10:51:56.932Z,15.4
2022-11-09T10:52:56.957Z,15.3
2022-11-09T10:54:00.739Z,15.2
2022-11-09T10:54:57.117Z,15.3
2022-11-09T10:55:57.157Z,15.4
2022-11-09T10:57:09.861Z,15.4
2022-11-09T10:57:57.226Z,15.5
2022-11-09T10:58:57.281Z,15.5
2022-11-09T10:59:57.355Z,15.4
2022-11-09T11:00:57.431Z,15.5
2022-11-09T11:02:01.993Z,15.6
2022-11-09T11:02:57.562Z,15.5
2022-11-09T11:03:57.586Z,15.5
2022-11-09T11:04:57.646Z,15.3
2022-11-09T11:05:57.719Z,15.3
2022-11-09T11:06:57.851Z,15.3
2022-11-09T11:07:57.785Z,15.3
2022-11-09T11:09:02.862Z,15.5
2022-11-09T11:09:57.936Z,15.7
2022-11-09T11:11:06.833Z,15.6
2022-11-09T11:11:58.074Z,15.3
2022-11-09T11:12:58.147Z,15.1
2022-11-09T11:13:58.185Z,15.1
2022-11-09T11:14:58.285Z,14.9
2022-11-09T11:15:58.296Z,14.8
2022-11-09T11:16:58.378Z,14.9
2022-11-09T11:17:58.397Z,14.8
2022-11-09T11:18:58.451Z,14.9
2022-11-09T11:19:58.545Z,14.8
2022-11-09T11:20:58.585Z,14.8
2022-11-09T11:21:58.676Z,14.8
2022-11-09T11:22:58.705Z,14.7
2022-11-09T11:23:58.758Z,14.7
2022-11-09T11:24:58.820Z,14.8
2022-11-09T11:25:58.906Z,14.8
2022-11-09T11:26:58.923Z,14.8
2022-11-09T11:27:58.971Z,14.9
2022-11-09T11:28:59.052Z,14.8
2022-11-09T11:29:59.115Z,14.8
2022-11-09T11:30:59.164Z,14.8
2022-11-09T11:31:59.211Z,14.9
2022-11-09T11:32:59.316Z,14.9
2022-11-09T11:33:59.343Z,14.8
2022-11-09T11:35:00.954Z,14.9
2022-11-09T11:35:59.458Z,14.9
2022-11-09T11:36:59.523Z,14.8
2022-11-09T11:37:59.553Z,14.7
2022-11-09T11:38:59.638Z,14.7
2022-11-09T11:39:59.659Z,14.8
2022-11-09T11:40:59.750Z,14.9
2022-11-09T11:41:59.804Z,14.9
2022-11-09T11:42:59.884Z,14.9
2022-11-09T11:43:59.884Z,14.8
2022-11-09T11:45:18.785Z,14.8
2022-11-09T11:46:00.009Z,14.9
2022-11-09T11:47:00.053Z,15
2022-11-09T11:48:00.127Z,15
2022-11-09T11:49:00.184Z,15
2022-11-09T11:50:00.302Z,15
2022-11-09T11:51:00.297Z,15.1
2022-11-09T11:52:00.361Z,15
2022-11-09T11:53:00.427Z,15
2022-11-09T11:54:00.456Z,15.1
2022-11-09T11:55:00.544Z,15.1
2022-11-09T11:56:00.641Z,15
2022-11-09T11:57:00.634Z,15
2022-11-09T11:58:00.694Z,15
2022-11-09T11:59:01.280Z,14.9
2022-11-09T12:00:00.821Z,14.9
2022-11-09T12:01:00.904Z,15
2022-11-09T12:02:00.902Z,15
2022-11-09T12:03:00.964Z,14.9
2022-11-09T12:04:01.020Z,14.9
2022-11-09T12:05:01.092Z,14.9
2022-11-09T12:06:01.140Z,14.8
2022-11-09T12:07:01.212Z,14.8
2022-11-09T12:08:01.201Z,14.8
2022-11-09T12:09:01.213Z,14.9
2022-11-09T12:10:01.278Z,14.9
2022-11-09T12:11:01.365Z,14.8
2022-11-09T12:12:01.369Z,14.7
2022-11-09T12:13:01.473Z,14.7
2022-11-09T12:14:01.510Z,14.7
2022-11-09T12:15:01.572Z,14.6
2022-11-09T12:16:01.682Z,14.7
2022-11-09T12:17:01.799Z,14.7
2022-11-09T12:18:01.796Z,14.7
2022-11-09T12:19:01.871Z,14.8
2022-11-09T12:20:01.940Z,14.8
2022-11-09T12:21:01.967Z,14.7
2022-11-09T12:22:02.019Z,14.7
2022-11-09T12:23:02.063Z,14.8
2022-11-09T12:24:02.140Z,14.8
2022-11-09T12:25:02.196Z,14.7
2022-11-09T12:26:02.282Z,14.8
2022-11-09T12:27:25.970Z,14.9
2022-11-09T12:28:02.395Z,14.8
2022-11-09T12:29:02.475Z,14.9
2022-11-09T12:30:02.488Z,14.8
2022-11-09T12:31:02.591Z,14.8
2022-11-09T12:32:02.644Z,14.9
2022-11-09T12:33:02.722Z,14.9
2022-11-09T12:34:02.751Z,14.9
2022-11-09T12:35:02.807Z,14.9
2022-11-09T12:36:02.934Z,14.9
2022-11-09T12:37:02.882Z,14.9
2022-11-09T12:38:02.946Z,14.8
2022-11-09T12:39:03.015Z,14.8
2022-11-09T12:40:03.110Z,14.8
2022-11-09T12:41:03.123Z,14.9
2022-11-09T12:42:03.140Z,14.8
2022-11-09T12:43:03.263Z,14.8
2022-11-09T12:44:03.257Z,14.8
2022-11-09T12:45:03.427Z,14.9
2022-11-09T12:46:04.588Z,14.9
2022-11-09T12:47:03.462Z,14.8
2022-11-09T12:48:03.547Z,14.7
2022-11-09T12:49:03.689Z,14.6
2022-11-09T12:50:03.637Z,14.6
2022-11-09T12:51:03.754Z,14.6
2022-11-09T12:52:03.768Z,14.6
2022-11-09T12:53:03.830Z,14.7
2022-11-09T12:54:03.902Z,14.5
2022-11-09T12:55:03.896Z,14.5
2022-11-09T12:56:04.871Z,14.5
2022-11-09T12:57:10.872Z,14.6
2022-11-09T12:58:04.087Z,14.6
2022-11-09T12:59:32.322Z,14.5
2022-11-09T13:01:11.671Z,14.5
2022-11-09T13:02:04.499Z,14.6
2022-11-09T13:03:05.245Z,14.6
2022-11-09T13:04:04.916Z,14.6
2022-11-09T13:05:05.108Z,14.7
2022-11-09T13:06:04.594Z,14.6
2022-11-09T13:07:06.116Z,14.8
2022-11-09T13:08:04.693Z,14.7
2022-11-09T13:09:04.833Z,14.6
2022-11-09T13:10:04.817Z,14.6
2022-11-09T13:11:06.144Z,14.6
2022-11-09T13:12:04.937Z,14.6
2022-11-09T13:13:04.990Z,14.6
2022-11-09T13:14:05.025Z,14.5
2022-11-09T13:15:05.065Z,14.6
2022-11-09T13:16:05.172Z,14.6
2022-11-09T13:17:07.111Z,14.5
2022-11-09T13:18:17.334Z,14.5
2022-11-09T13:19:08.210Z,14.5
2022-11-09T13:20:48.570Z,14.6
2022-11-09T13:23:12.182Z,14.9
2022-11-09T13:24:24.086Z,14.8
2022-11-09T13:25:12.943Z,14.9
2022-11-09T13:26:12.424Z,14.8
2022-11-09T13:27:12.406Z,14.9
2022-11-09T13:28:12.478Z,14.9
2022-11-09T13:29:12.490Z,14.8
2022-11-09T13:30:22.162Z,14.9
2022-11-09T13:32:24.987Z,14.8
2022-11-09T13:33:25.337Z,14.9
2022-11-09T13:34:30.071Z,14.8
2022-11-09T13:35:25.186Z,14.8
2022-11-09T13:36:25.217Z,14.7
2022-11-09T13:37:25.252Z,14.7
2022-11-09T13:38:25.290Z,14.8
2022-11-09T13:39:25.309Z,14.9
2022-11-09T13:40:25.805Z,14.9
2022-11-09T13:41:25.552Z,14.8
2022-11-09T13:42:25.539Z,14.7
2022-11-09T13:43:39.775Z,14.7
2022-11-09T13:44:25.613Z,14.7
2022-11-09T13:45:25.673Z,14.7
2022-11-09T13:46:25.696Z,14.6
2022-11-09T13:47:25.790Z,14.7
2022-11-09T13:48:25.848Z,14.6
2022-11-09T13:49:25.945Z,14.6
2022-11-09T13:50:25.986Z,14.7
2022-11-09T13:51:25.992Z,14.6
2022-11-09T13:52:26.137Z,14.5
2022-11-09T13:53:26.084Z,14.6
2022-11-09T13:54:26.160Z,14.4
2022-11-09T13:55:26.921Z,14.5
2022-11-09T13:56:27.543Z,14.6
2022-11-09T13:57:26.353Z,14.6
2022-11-09T13:58:26.380Z,14.6
2022-11-09T13:59:26.446Z,14.7
2022-11-09T14:00:26.491Z,14.7
2022-11-09T14:01:27.748Z,14.6
2022-11-09T14:02:26.603Z,14.6
2022-11-09T14:03:26.660Z,14.6
2022-11-09T14:04:26.751Z,14.8
2022-11-09T14:05:26.833Z,14.8
2022-11-09T14:06:27.122Z,14.8
2022-11-09T14:07:26.917Z,14.8
2022-11-09T14:08:27.026Z,14.8
2022-11-09T14:09:27.060Z,14.7
2022-11-09T14:10:27.067Z,14.6
2022-11-09T14:11:27.149Z,14.5
2022-11-09T14:12:27.186Z,14.5
2022-11-09T14:13:32.259Z,14.6
2022-11-09T14:14:27.322Z,14.5
2022-11-09T14:15:27.363Z,14.5
2022-11-09T14:16:27.421Z,14.4
2022-11-09T14:17:27.500Z,14.4
2022-11-09T14:18:27.539Z,14.5
2022-11-09T14:19:27.633Z,14.4
2022-11-09T14:20:27.660Z,14.3